San Antonio, Texas
Traffic Map
Current Weather Conditions
San Antonio, Texas
Broken Clouds
Broken Clouds
71°
Feels Like: 71°
Wind Chill: 71° Ceiling: 1700
Heat Index: 71° Visibility: 10mi
Dew Point: 65° Wind: 18mph
Humidity: 81% Direction: 120° (ESE)
Pressure: 29.65in Gusts: 0mph
Raw Report DataKSAT 290351Z 12016KT 10SM BKN017 BKN250 22/18 A2965 RMK AO2 SLP023 T02170183
Traffic Incident Summary
Active as of:
Severity:
Category:
InformationThere was an issue retrieving the traffic information for this location. Please try a different location or try again shortly.
Advertisements
Track Severe Weather on mobile